Terminal Aerodrome Forecast
Issued by NWS

Home | Current Version | Previous Version | Text Only | Print | Product List | Glossary On
Versions: 1 2 3 4 5 6 7 8 9 10 11 12 13 14 15 16 17 18 19 20 21 22 23 24 25 26 27 28 29 30 31 32 33 34 35 36 37 38 39 40 41 42 43 44 45 46 47 48
000
FTUS46 KEKA 191744
TAFACV
TAF
KACV 191744Z 1918/2018 14007KT P6SM VCSH SCT050 BKN100
     FM192200 17008KT P6SM VCSH SCT050 BKN200
     FM200400 15008KT 6SM -RA BR SCT015 BKN040
     FM200900 15012G18KT 6SM -RA SCT015 BKN040
     FM201500 16012G20KT 6SM -RA SCT008 OVC020=

USA.gov is the U.S. government's official web portal to all federal, state and local government web resources and services.